sensor_id;sensor_type;location;lat;lon;timestamp;temperature;humidity
2751;DHT22;1383;48.362;10.908;2024-02-16T00:00:11;8.00;77.80
2751;DHT22;1383;48.362;10.908;2024-02-16T00:02:39;8.00;77.00
2751;DHT22;1383;48.362;10.908;2024-02-16T00:05:06;7.90;76.70
2751;DHT22;1383;48.362;10.908;2024-02-16T00:07:34;8.00;76.90
2751;DHT22;1383;48.362;10.908;2024-02-16T00:10:01;8.00;76.50
2751;DHT22;1383;48.362;10.908;2024-02-16T00:12:28;7.90;77.60
2751;DHT22;1383;48.362;10.908;2024-02-16T00:14:54;7.80;78.40
2751;DHT22;1383;48.362;10.908;2024-02-16T00:17:22;7.90;79.40
2751;DHT22;1383;48.362;10.908;2024-02-16T00:19:48;8.00;78.90
2751;DHT22;1383;48.362;10.908;2024-02-16T00:22:15;8.00;79.30
2751;DHT22;1383;48.362;10.908;2024-02-16T00:24:42;8.10;79.60
2751;DHT22;1383;48.362;10.908;2024-02-16T00:27:09;8.10;80.30
2751;DHT22;1383;48.362;10.908;2024-02-16T00:29:36;8.20;80.80
2751;DHT22;1383;48.362;10.908;2024-02-16T00:32:05;8.10;80.80
2751;DHT22;1383;48.362;10.908;2024-02-16T00:34:35;8.10;81.30
2751;DHT22;1383;48.362;10.908;2024-02-16T00:37:05;8.10;80.50
2751;DHT22;1383;48.362;10.908;2024-02-16T00:39:36;8.00;80.20
2751;DHT22;1383;48.362;10.908;2024-02-16T00:42:03;8.00;80.30
2751;DHT22;1383;48.362;10.908;2024-02-16T00:44:30;8.00;80.20
2751;DHT22;1383;48.362;10.908;2024-02-16T00:46:57;7.90;80.40
2751;DHT22;1383;48.362;10.908;2024-02-16T00:49:24;8.00;80.30
2751;DHT22;1383;48.362;10.908;2024-02-16T00:51:52;8.10;80.20
2751;DHT22;1383;48.362;10.908;2024-02-16T00:54:22;8.20;79.80
2751;DHT22;1383;48.362;10.908;2024-02-16T00:56:49;8.20;79.50
2751;DHT22;1383;48.362;10.908;2024-02-16T00:59:16;8.30;79.00
2751;DHT22;1383;48.362;10.908;2024-02-16T01:01:43;8.30;77.90
2751;DHT22;1383;48.362;10.908;2024-02-16T01:04:10;8.30;77.60
2751;DHT22;1383;48.362;10.908;2024-02-16T01:06:37;8.20;77.00
2751;DHT22;1383;48.362;10.908;2024-02-16T01:09:03;8.30;76.60
2751;DHT22;1383;48.362;10.908;2024-02-16T01:11:30;8.30;75.70
2751;DHT22;1383;48.362;10.908;2024-02-16T01:13:57;8.20;75.50
2751;DHT22;1383;48.362;10.908;2024-02-16T01:16:24;8.10;75.90
2751;DHT22;1383;48.362;10.908;2024-02-16T01:18:51;8.00;77.20
2751;DHT22;1383;48.362;10.908;2024-02-16T01:21:18;8.00;77.40
2751;DHT22;1383;48.362;10.908;2024-02-16T01:23:45;8.00;77.60
2751;DHT22;1383;48.362;10.908;2024-02-16T01:26:12;8.00;77.60
2751;DHT22;1383;48.362;10.908;2024-02-16T01:28:39;8.00;77.60
2751;DHT22;1383;48.362;10.908;2024-02-16T01:31:06;8.00;77.40
2751;DHT22;1383;48.362;10.908;2024-02-16T01:33:33;7.90;77.50
2751;DHT22;1383;48.362;10.908;2024-02-16T01:36:03;7.90;77.70
2751;DHT22;1383;48.362;10.908;2024-02-16T01:38:30;8.00;77.70
2751;DHT22;1383;48.362;10.908;2024-02-16T01:40:56;8.10;77.70
2751;DHT22;1383;48.362;10.908;2024-02-16T01:43:23;8.10;78.80
2751;DHT22;1383;48.362;10.908;2024-02-16T01:45:50;8.20;79.80
2751;DHT22;1383;48.362;10.908;2024-02-16T01:48:17;8.20;80.70
2751;DHT22;1383;48.362;10.908;2024-02-16T01:50:45;8.40;81.20
2751;DHT22;1383;48.362;10.908;2024-02-16T01:53:12;8.40;81.20
2751;DHT22;1383;48.362;10.908;2024-02-16T01:55:41;8.40;81.10
2751;DHT22;1383;48.362;10.908;2024-02-16T01:58:08;8.40;80.50
2751;DHT22;1383;48.362;10.908;2024-02-16T02:00:35;8.20;81.60
2751;DHT22;1383;48.362;10.908;2024-02-16T02:03:02;8.20;81.80
2751;DHT22;1383;48.362;10.908;2024-02-16T02:05:29;8.00;81.80
2751;DHT22;1383;48.362;10.908;2024-02-16T02:07:56;8.00;82.50
2751;DHT22;1383;48.362;10.908;2024-02-16T02:10:22;8.00;83.40
2751;DHT22;1383;48.362;10.908;2024-02-16T02:12:49;8.00;82.70
2751;DHT22;1383;48.362;10.908;2024-02-16T02:15:16;8.00;82.80
2751;DHT22;1383;48.362;10.908;2024-02-16T02:17:44;8.00;82.60
2751;DHT22;1383;48.362;10.908;2024-02-16T02:20:11;8.00;83.50
2751;DHT22;1383;48.362;10.908;2024-02-16T02:22:38;8.00;83.10
2751;DHT22;1383;48.362;10.908;2024-02-16T02:25:05;8.10;82.80
2751;DHT22;1383;48.362;10.908;2024-02-16T02:27:32;8.20;82.30
2751;DHT22;1383;48.362;10.908;2024-02-16T02:29:59;8.20;81.50
2751;DHT22;1383;48.362;10.908;2024-02-16T02:32:26;8.20;81.20
2751;DHT22;1383;48.362;10.908;2024-02-16T02:34:53;8.10;80.80
2751;DHT22;1383;48.362;10.908;2024-02-16T02:37:20;8.10;81.20
2751;DHT22;1383;48.362;10.908;2024-02-16T02:39:47;8.10;81.50
2751;DHT22;1383;48.362;10.908;2024-02-16T02:42:14;8.10;81.30
2751;DHT22;1383;48.362;10.908;2024-02-16T02:44:41;8.10;80.80
2751;DHT22;1383;48.362;10.908;2024-02-16T02:47:16;8.10;81.00
2751;DHT22;1383;48.362;10.908;2024-02-16T02:49:45;8.10;80.90
2751;DHT22;1383;48.362;10.908;2024-02-16T02:52:12;8.10;80.10
2751;DHT22;1383;48.362;10.908;2024-02-16T02:54:39;8.10;80.60
2751;DHT22;1383;48.362;10.908;2024-02-16T02:57:06;8.00;80.40
2751;DHT22;1383;48.362;10.908;2024-02-16T02:59:33;8.00;81.20
2751;DHT22;1383;48.362;10.908;2024-02-16T03:02:03;7.90;80.40
2751;DHT22;1383;48.362;10.908;2024-02-16T03:04:30;7.80;81.70
2751;DHT22;1383;48.362;10.908;2024-02-16T03:06:57;7.70;83.10
2751;DHT22;1383;48.362;10.908;2024-02-16T03:09:24;7.70;82.90
2751;DHT22;1383;48.362;10.908;2024-02-16T03:11:51;7.70;82.90
2751;DHT22;1383;48.362;10.908;2024-02-16T03:14:18;7.60;83.20
2751;DHT22;1383;48.362;10.908;2024-02-16T03:16:44;7.60;83.10
2751;DHT22;1383;48.362;10.908;2024-02-16T03:19:11;7.60;83.20
2751;DHT22;1383;48.362;10.908;2024-02-16T03:21:38;7.50;83.30
2751;DHT22;1383;48.362;10.908;2024-02-16T03:24:05;7.40;84.20
2751;DHT22;1383;48.362;10.908;2024-02-16T03:26:32;7.40;85.00
2751;DHT22;1383;48.362;10.908;2024-02-16T03:28:59;7.50;84.30
2751;DHT22;1383;48.362;10.908;2024-02-16T03:31:26;7.40;83.70
2751;DHT22;1383;48.362;10.908;2024-02-16T03:33:54;7.30;83.80
2751;DHT22;1383;48.362;10.908;2024-02-16T03:36:21;7.20;84.50
2751;DHT22;1383;48.362;10.908;2024-02-16T03:38:48;7.20;84.40
2751;DHT22;1383;48.362;10.908;2024-02-16T03:41:21;7.30;84.30
2751;DHT22;1383;48.362;10.908;2024-02-16T03:43:47;7.30;84.00
2751;DHT22;1383;48.362;10.908;2024-02-16T03:46:14;7.30;84.50
2751;DHT22;1383;48.362;10.908;2024-02-16T03:48:42;7.30;84.20
2751;DHT22;1383;48.362;10.908;2024-02-16T03:51:09;7.30;83.80
2751;DHT22;1383;48.362;10.908;2024-02-16T03:53:36;7.30;82.90
2751;DHT22;1383;48.362;10.908;2024-02-16T03:56:03;7.30;82.70
2751;DHT22;1383;48.362;10.908;2024-02-16T03:58:31;7.20;82.70
2751;DHT22;1383;48.362;10.908;2024-02-16T04:00:58;7.30;82.60
2751;DHT22;1383;48.362;10.908;2024-02-16T04:03:25;7.30;81.90
2751;DHT22;1383;48.362;10.908;2024-02-16T04:05:52;7.30;81.30
2751;DHT22;1383;48.362;10.908;2024-02-16T04:08:19;7.30;80.80
2751;DHT22;1383;48.362;10.908;2024-02-16T04:10:46;7.20;80.70
2751;DHT22;1383;48.362;10.908;2024-02-16T04:13:13;7.20;80.10
2751;DHT22;1383;48.362;10.908;2024-02-16T04:15:40;7.10;80.50
2751;DHT22;1383;48.362;10.908;2024-02-16T04:18:08;7.00;81.10
2751;DHT22;1383;48.362;10.908;2024-02-16T04:20:36;7.00;81.50
2751;DHT22;1383;48.362;10.908;2024-02-16T04:23:04;7.00;81.30
2751;DHT22;1383;48.362;10.908;2024-02-16T04:25:31;7.00;81.00
2751;DHT22;1383;48.362;10.908;2024-02-16T04:27:58;7.00;80.70
2751;DHT22;1383;48.362;10.908;2024-02-16T04:30:25;7.00;81.00
2751;DHT22;1383;48.362;10.908;2024-02-16T04:32:52;6.90;80.90
2751;DHT22;1383;48.362;10.908;2024-02-16T04:35:20;6.90;81.40
2751;DHT22;1383;48.362;10.908;2024-02-16T04:37:47;6.90;80.90
2751;DHT22;1383;48.362;10.908;2024-02-16T04:40:13;6.90;81.70
2751;DHT22;1383;48.362;10.908;2024-02-16T04:42:40;6.90;81.70
2751;DHT22;1383;48.362;10.908;2024-02-16T04:45:10;6.90;81.30
2751;DHT22;1383;48.362;10.908;2024-02-16T04:47:37;6.90;80.70
2751;DHT22;1383;48.362;10.908;2024-02-16T04:50:06;6.80;80.80
2751;DHT22;1383;48.362;10.908;2024-02-16T04:52:37;6.80;81.30
2751;DHT22;1383;48.362;10.908;2024-02-16T04:55:05;6.90;81.30
2751;DHT22;1383;48.362;10.908;2024-02-16T04:57:33;6.90;80.60
2751;DHT22;1383;48.362;10.908;2024-02-16T05:00:00;6.80;79.70
2751;DHT22;1383;48.362;10.908;2024-02-16T05:02:27;6.80;79.80
2751;DHT22;1383;48.362;10.908;2024-02-16T05:04:54;6.70;79.70
2751;DHT22;1383;48.362;10.908;2024-02-16T05:07:21;6.70;80.30
2751;DHT22;1383;48.362;10.908;2024-02-16T05:09:48;6.70;80.20
2751;DHT22;1383;48.362;10.908;2024-02-16T05:12:16;6.70;80.50
2751;DHT22;1383;48.362;10.908;2024-02-16T05:14:48;6.60;80.40
2751;DHT22;1383;48.362;10.908;2024-02-16T05:17:16;6.60;81.40
2751;DHT22;1383;48.362;10.908;2024-02-16T05:19:42;6.60;81.40
2751;DHT22;1383;48.362;10.908;2024-02-16T05:22:09;6.70;81.80
2751;DHT22;1383;48.362;10.908;2024-02-16T05:24:36;6.80;81.10
2751;DHT22;1383;48.362;10.908;2024-02-16T05:27:03;6.80;80.50
2751;DHT22;1383;48.362;10.908;2024-02-16T05:29:30;6.90;80.00
2751;DHT22;1383;48.362;10.908;2024-02-16T05:31:57;6.90;79.60
2751;DHT22;1383;48.362;10.908;2024-02-16T05:34:24;7.00;79.40
2751;DHT22;1383;48.362;10.908;2024-02-16T05:36:51;7.00;78.80
2751;DHT22;1383;48.362;10.908;2024-02-16T05:39:18;7.10;78.80
2751;DHT22;1383;48.362;10.908;2024-02-16T05:41:53;7.00;77.40
2751;DHT22;1383;48.362;10.908;2024-02-16T05:44:20;7.00;77.70
2751;DHT22;1383;48.362;10.908;2024-02-16T05:46:47;6.80;77.60
2751;DHT22;1383;48.362;10.908;2024-02-16T05:49:15;6.70;78.70
2751;DHT22;1383;48.362;10.908;2024-02-16T05:51:45;6.60;80.00
2751;DHT22;1383;48.362;10.908;2024-02-16T05:54:32;6.50;80.30
2751;DHT22;1383;48.362;10.908;2024-02-16T05:57:04;6.50;81.20
2751;DHT22;1383;48.362;10.908;2024-02-16T05:59:31;6.50;81.80
2751;DHT22;1383;48.362;10.908;2024-02-16T06:01:57;6.60;81.90
2751;DHT22;1383;48.362;10.908;2024-02-16T06:04:25;6.70;81.40
2751;DHT22;1383;48.362;10.908;2024-02-16T06:06:53;6.80;80.60
2751;DHT22;1383;48.362;10.908;2024-02-16T06:09:21;6.70;79.60
2751;DHT22;1383;48.362;10.908;2024-02-16T06:11:47;6.70;79.40
2751;DHT22;1383;48.362;10.908;2024-02-16T06:14:15;6.70;79.30
2751;DHT22;1383;48.362;10.908;2024-02-16T06:16:46;6.80;79.20
2751;DHT22;1383;48.362;10.908;2024-02-16T06:23:05;6.70;77.80
2751;DHT22;1383;48.362;10.908;2024-02-16T06:25:31;6.50;78.70
2751;DHT22;1383;48.362;10.908;2024-02-16T06:27:58;6.50;80.00
2751;DHT22;1383;48.362;10.908;2024-02-16T06:30:25;6.50;79.80
2751;DHT22;1383;48.362;10.908;2024-02-16T06:32:52;6.60;79.50
2751;DHT22;1383;48.362;10.908;2024-02-16T06:35:21;6.50;80.00
2751;DHT22;1383;48.362;10.908;2024-02-16T06:37:48;6.50;80.20
2751;DHT22;1383;48.362;10.908;2024-02-16T06:40:15;6.50;80.00
2751;DHT22;1383;48.362;10.908;2024-02-16T06:42:43;6.60;79.30
2751;DHT22;1383;48.362;10.908;2024-02-16T06:45:10;6.60;79.50
2751;DHT22;1383;48.362;10.908;2024-02-16T06:47:38;6.60;79.30
2751;DHT22;1383;48.362;10.908;2024-02-16T06:50:05;6.50;78.90
2751;DHT22;1383;48.362;10.908;2024-02-16T06:52:32;6.50;79.60
2751;DHT22;1383;48.362;10.908;2024-02-16T06:55:00;6.60;79.00
2751;DHT22;1383;48.362;10.908;2024-02-16T06:57:26;6.50;79.20
2751;DHT22;1383;48.362;10.908;2024-02-16T06:59:53;6.50;78.90
2751;DHT22;1383;48.362;10.908;2024-02-16T07:02:20;6.50;78.70
2751;DHT22;1383;48.362;10.908;2024-02-16T07:04:47;6.40;79.30
2751;DHT22;1383;48.362;10.908;2024-02-16T07:07:14;6.40;79.30
2751;DHT22;1383;48.362;10.908;2024-02-16T07:09:41;6.30;79.30
2751;DHT22;1383;48.362;10.908;2024-02-16T07:12:08;6.20;79.90
2751;DHT22;1383;48.362;10.908;2024-02-16T07:14:43;6.30;80.60
2751;DHT22;1383;48.362;10.908;2024-02-16T07:17:12;6.30;81.30
2751;DHT22;1383;48.362;10.908;2024-02-16T07:19:39;6.30;81.00
2751;DHT22;1383;48.362;10.908;2024-02-16T07:22:06;6.40;80.60
2751;DHT22;1383;48.362;10.908;2024-02-16T07:24:33;6.40;80.70
2751;DHT22;1383;48.362;10.908;2024-02-16T07:27:01;6.40;80.50
2751;DHT22;1383;48.362;10.908;2024-02-16T07:29:28;6.50;80.40
2751;DHT22;1383;48.362;10.908;2024-02-16T07:31:55;6.50;80.00
2751;DHT22;1383;48.362;10.908;2024-02-16T07:34:23;6.50;80.00
2751;DHT22;1383;48.362;10.908;2024-02-16T07:36:50;6.60;79.40
2751;DHT22;1383;48.362;10.908;2024-02-16T07:39:19;6.60;79.00
2751;DHT22;1383;48.362;10.908;2024-02-16T07:41:49;6.50;79.30
2751;DHT22;1383;48.362;10.908;2024-02-16T07:44:16;6.60;80.00
2751;DHT22;1383;48.362;10.908;2024-02-16T07:46:43;6.70;80.00
2751;DHT22;1383;48.362;10.908;2024-02-16T07:49:10;6.70;78.70
2751;DHT22;1383;48.362;10.908;2024-02-16T07:51:39;6.80;78.80
2751;DHT22;1383;48.362;10.908;2024-02-16T07:54:07;7.00;78.10
2751;DHT22;1383;48.362;10.908;2024-02-16T07:56:34;7.00;77.40
2751;DHT22;1383;48.362;10.908;2024-02-16T07:59:01;7.00;77.30
2751;DHT22;1383;48.362;10.908;2024-02-16T08:01:28;7.20;76.50
2751;DHT22;1383;48.362;10.908;2024-02-16T08:07:43;7.70;74.50
2751;DHT22;1383;48.362;10.908;2024-02-16T08:10:11;8.00;73.70
2751;DHT22;1383;48.362;10.908;2024-02-16T08:12:39;8.30;70.60
2751;DHT22;1383;48.362;10.908;2024-02-16T08:15:08;8.40;67.90
2751;DHT22;1383;48.362;10.908;2024-02-16T08:17:35;8.50;65.10
2751;DHT22;1383;48.362;10.908;2024-02-16T08:20:03;8.60;64.60
2751;DHT22;1383;48.362;10.908;2024-02-16T08:22:30;8.70;64.20
2751;DHT22;1383;48.362;10.908;2024-02-16T08:24:57;8.70;64.00
2751;DHT22;1383;48.362;10.908;2024-02-16T08:27:24;8.80;64.10
2751;DHT22;1383;48.362;10.908;2024-02-16T08:29:51;8.90;63.40
2751;DHT22;1383;48.362;10.908;2024-02-16T08:32:18;9.10;62.70
2751;DHT22;1383;48.362;10.908;2024-02-16T08:34:47;9.30;62.50
2751;DHT22;1383;48.362;10.908;2024-02-16T08:37:17;9.60;62.00
2751;DHT22;1383;48.362;10.908;2024-02-16T08:39:45;9.90;60.70
2751;DHT22;1383;48.362;10.908;2024-02-16T08:42:12;10.30;57.60
2751;DHT22;1383;48.362;10.908;2024-02-16T08:44:39;10.60;56.60
2751;DHT22;1383;48.362;10.908;2024-02-16T08:47:07;11.00;55.70
2751;DHT22;1383;48.362;10.908;2024-02-16T08:49:34;11.30;53.60
2751;DHT22;1383;48.362;10.908;2024-02-16T08:52:03;11.60;51.60
2751;DHT22;1383;48.362;10.908;2024-02-16T08:54:30;11.90;50.50
2751;DHT22;1383;48.362;10.908;2024-02-16T08:56:57;12.10;49.50
2751;DHT22;1383;48.362;10.908;2024-02-16T08:59:28;12.50;49.20
2751;DHT22;1383;48.362;10.908;2024-02-16T09:01:57;12.80;48.70
2751;DHT22;1383;48.362;10.908;2024-02-16T09:04:25;13.20;46.90
2751;DHT22;1383;48.362;10.908;2024-02-16T09:06:52;13.50;45.00
2751;DHT22;1383;48.362;10.908;2024-02-16T09:09:20;13.80;44.80
2751;DHT22;1383;48.362;10.908;2024-02-16T09:11:50;14.00;43.30
2751;DHT22;1383;48.362;10.908;2024-02-16T09:14:32;14.20;42.30
2751;DHT22;1383;48.362;10.908;2024-02-16T09:16:58;14.20;42.30
2751;DHT22;1383;48.362;10.908;2024-02-16T09:19:25;14.20;42.30
2751;DHT22;1383;48.362;10.908;2024-02-16T09:21:53;14.30;42.40
2751;DHT22;1383;48.362;10.908;2024-02-16T09:24:24;14.40;42.50
2751;DHT22;1383;48.362;10.908;2024-02-16T09:26:57;14.50;42.30
2751;DHT22;1383;48.362;10.908;2024-02-16T09:29:24;14.60;41.80
2751;DHT22;1383;48.362;10.908;2024-02-16T09:31:52;14.80;41.90
2751;DHT22;1383;48.362;10.908;2024-02-16T09:34:19;15.00;41.20
2751;DHT22;1383;48.362;10.908;2024-02-16T09:36:46;15.20;41.00
2751;DHT22;1383;48.362;10.908;2024-02-16T09:39:13;15.40;41.50
2751;DHT22;1383;48.362;10.908;2024-02-16T09:41:49;15.60;40.00
2751;DHT22;1383;48.362;10.908;2024-02-16T09:44:17;15.80;40.60
2751;DHT22;1383;48.362;10.908;2024-02-16T09:46:46;16.10;38.40
2751;DHT22;1383;48.362;10.908;2024-02-16T09:49:15;16.30;38.40
2751;DHT22;1383;48.362;10.908;2024-02-16T09:51:42;16.50;37.60
2751;DHT22;1383;48.362;10.908;2024-02-16T09:54:09;16.80;37.80
2751;DHT22;1383;48.362;10.908;2024-02-16T09:56:36;17.00;36.10
2751;DHT22;1383;48.362;10.908;2024-02-16T09:59:03;17.00;35.20
2751;DHT22;1383;48.362;10.908;2024-02-16T10:01:35;17.00;35.40
2751;DHT22;1383;48.362;10.908;2024-02-16T10:04:06;17.20;34.30
2751;DHT22;1383;48.362;10.908;2024-02-16T10:06:49;17.30;34.50
2751;DHT22;1383;48.362;10.908;2024-02-16T10:09:24;17.40;33.50
2751;DHT22;1383;48.362;10.908;2024-02-16T10:11:52;17.30;34.10
2751;DHT22;1383;48.362;10.908;2024-02-16T10:14:19;17.40;34.00
2751;DHT22;1383;48.362;10.908;2024-02-16T10:16:47;17.50;33.70
2751;DHT22;1383;48.362;10.908;2024-02-16T10:19:30;17.70;33.60
2751;DHT22;1383;48.362;10.908;2024-02-16T10:22:11;17.90;33.20
2751;DHT22;1383;48.362;10.908;2024-02-16T10:24:39;18.20;33.20
2751;DHT22;1383;48.362;10.908;2024-02-16T10:27:16;18.40;32.70
2751;DHT22;1383;48.362;10.908;2024-02-16T10:29:47;18.50;32.00
2751;DHT22;1383;48.362;10.908;2024-02-16T10:32:17;18.70;32.20
2751;DHT22;1383;48.362;10.908;2024-02-16T10:34:46;18.80;31.50
2751;DHT22;1383;48.362;10.908;2024-02-16T10:37:15;19.00;30.60
2751;DHT22;1383;48.362;10.908;2024-02-16T10:39:42;19.00;30.70
2751;DHT22;1383;48.362;10.908;2024-02-16T10:42:13;19.00;31.20
2751;DHT22;1383;48.362;10.908;2024-02-16T10:44:41;19.20;30.60
2751;DHT22;1383;48.362;10.908;2024-02-16T10:47:09;19.30;30.60
2751;DHT22;1383;48.362;10.908;2024-02-16T10:49:37;19.30;30.60
2751;DHT22;1383;48.362;10.908;2024-02-16T10:52:05;19.30;30.20
2751;DHT22;1383;48.362;10.908;2024-02-16T10:54:34;19.20;29.70
2751;DHT22;1383;48.362;10.908;2024-02-16T11:00:52;19.20;29.50
2751;DHT22;1383;48.362;10.908;2024-02-16T11:03:32;19.00;29.60
2751;DHT22;1383;48.362;10.908;2024-02-16T11:05:59;19.00;29.50
2751;DHT22;1383;48.362;10.908;2024-02-16T11:08:26;19.00;29.00
2751;DHT22;1383;48.362;10.908;2024-02-16T11:13:54;18.70;29.30
2751;DHT22;1383;48.362;10.908;2024-02-16T11:16:53;18.60;29.50
2751;DHT22;1383;48.362;10.908;2024-02-16T11:19:22;18.80;29.50
2751;DHT22;1383;48.362;10.908;2024-02-16T11:22:15;18.70;29.40
2751;DHT22;1383;48.362;10.908;2024-02-16T11:24:53;18.60;29.30
2751;DHT22;1383;48.362;10.908;2024-02-16T11:27:25;18.50;29.60
2751;DHT22;1383;48.362;10.908;2024-02-16T11:29:58;18.50;29.70
2751;DHT22;1383;48.362;10.908;2024-02-16T11:32:32;18.50;29.70
2751;DHT22;1383;48.362;10.908;2024-02-16T11:35:10;18.50;29.90
2751;DHT22;1383;48.362;10.908;2024-02-16T11:38:30;18.50;29.40
2751;DHT22;1383;48.362;10.908;2024-02-16T11:41:33;18.50;29.40
2751;DHT22;1383;48.362;10.908;2024-02-16T11:44:39;18.40;29.80
2751;DHT22;1383;48.362;10.908;2024-02-16T11:47:19;18.40;29.90
2751;DHT22;1383;48.362;10.908;2024-02-16T12:07:53;18.30;31.10
2751;DHT22;1383;48.362;10.908;2024-02-16T12:14:38;18.50;30.70
2751;DHT22;1383;48.362;10.908;2024-02-16T12:17:35;18.50;31.00
2751;DHT22;1383;48.362;10.908;2024-02-16T16:09:57;15.70;39.00
2751;DHT22;1383;48.362;10.908;2024-02-16T16:12:59;15.70;39.10
2751;DHT22;1383;48.362;10.908;2024-02-16T16:15:29;15.70;39.00
2751;DHT22;1383;48.362;10.908;2024-02-16T16:18:03;15.70;39.10
2751;DHT22;1383;48.362;10.908;2024-02-16T16:20:34;15.70;39.30
2751;DHT22;1383;48.362;10.908;2024-02-16T16:23:01;15.70;39.30
2751;DHT22;1383;48.362;10.908;2024-02-16T16:25:28;15.70;39.30
2751;DHT22;1383;48.362;10.908;2024-02-16T18:22:47;13.90;48.80
2751;DHT22;1383;48.362;10.908;2024-02-16T18:25:23;14.00;48.70
2751;DHT22;1383;48.362;10.908;2024-02-16T19:07:05;14.30;51.10
2751;DHT22;1383;48.362;10.908;2024-02-16T19:09:51;14.30;50.80
2751;DHT22;1383;48.362;10.908;2024-02-16T19:12:29;14.30;50.60
2751;DHT22;1383;48.362;10.908;2024-02-16T20:43:35;13.40;57.70
2751;DHT22;1383;48.362;10.908;2024-02-16T20:49:45;13.60;58.10
2751;DHT22;1383;48.362;10.908;2024-02-16T20:52:28;13.60;58.00
2751;DHT22;1383;48.362;10.908;2024-02-16T20:57:25;13.70;58.00
2751;DHT22;1383;48.362;10.908;2024-02-16T21:04:11;13.60;57.90
2751;DHT22;1383;48.362;10.908;2024-02-16T21:07:20;13.60;58.40
2751;DHT22;1383;48.362;10.908;2024-02-16T21:18:24;13.70;58.10
2751;DHT22;1383;48.362;10.908;2024-02-16T21:21:22;13.70;58.00
2751;DHT22;1383;48.362;10.908;2024-02-16T21:23:52;13.70;57.70
2751;DHT22;1383;48.362;10.908;2024-02-16T21:35:44;13.50;64.10
2751;DHT22;1383;48.362;10.908;2024-02-16T21:47:49;12.90;77.90
2751;DHT22;1383;48.362;10.908;2024-02-16T21:51:22;12.90;81.10
2751;DHT22;1383;48.362;10.908;2024-02-16T21:54:44;12.80;83.00
2751;DHT22;1383;48.362;10.908;2024-02-16T21:58:00;12.90;84.30
2751;DHT22;1383;48.362;10.908;2024-02-16T22:00:38;12.90;86.30
2751;DHT22;1383;48.362;10.908;2024-02-16T22:03:12;12.90;88.00
2751;DHT22;1383;48.362;10.908;2024-02-16T22:20:52;12.70;91.30
2751;DHT22;1383;48.362;10.908;2024-02-16T22:23:21;12.70;92.20
2751;DHT22;1383;48.362;10.908;2024-02-16T22:25:48;12.60;92.50
2751;DHT22;1383;48.362;10.908;2024-02-16T22:28:20;12.60;93.00
2751;DHT22;1383;48.362;10.908;2024-02-16T22:31:00;12.60;93.50
2751;DHT22;1383;48.362;10.908;2024-02-16T22:33:27;12.50;94.00
2751;DHT22;1383;48.362;10.908;2024-02-16T22:36:04;12.50;94.40
2751;DHT22;1383;48.362;10.908;2024-02-16T22:38:31;12.50;94.80
2751;DHT22;1383;48.362;10.908;2024-02-16T22:41:14;12.60;94.80
2751;DHT22;1383;48.362;10.908;2024-02-16T22:43:51;12.60;94.70
2751;DHT22;1383;48.362;10.908;2024-02-16T22:46:23;12.60;94.60
2751;DHT22;1383;48.362;10.908;2024-02-16T22:48:52;12.50;95.10
2751;DHT22;1383;48.362;10.908;2024-02-16T22:51:38;12.50;95.20
2751;DHT22;1383;48.362;10.908;2024-02-16T22:54:14;12.50;95.40
2751;DHT22;1383;48.362;10.908;2024-02-16T22:56:42;12.50;95.80
2751;DHT22;1383;48.362;10.908;2024-02-16T22:59:15;12.50;95.80
2751;DHT22;1383;48.362;10.908;2024-02-16T23:02:08;12.40;96.00
2751;DHT22;1383;48.362;10.908;2024-02-16T23:04:52;12.40;96.30
2751;DHT22;1383;48.362;10.908;2024-02-16T23:07:21;12.40;96.40
2751;DHT22;1383;48.362;10.908;2024-02-16T23:10:11;12.30;96.60
2751;DHT22;1383;48.362;10.908;2024-02-16T23:12:44;12.20;96.90
2751;DHT22;1383;48.362;10.908;2024-02-16T23:15:33;12.30;97.20
2751;DHT22;1383;48.362;10.908;2024-02-16T23:18:07;12.40;97.30
2751;DHT22;1383;48.362;10.908;2024-02-16T23:20:37;12.40;97.30
2751;DHT22;1383;48.362;10.908;2024-02-16T23:23:08;12.40;97.10
2751;DHT22;1383;48.362;10.908;2024-02-16T23:25:44;12.50;97.00
2751;DHT22;1383;48.362;10.908;2024-02-16T23:28:13;12.50;97.00
2751;DHT22;1383;48.362;10.908;2024-02-16T23:30:44;12.50;96.70
2751;DHT22;1383;48.362;10.908;2024-02-16T23:33:20;12.60;96.40
2751;DHT22;1383;48.362;10.908;2024-02-16T23:35:48;12.50;95.40
2751;DHT22;1383;48.362;10.908;2024-02-16T23:38:28;12.60;95.10
2751;DHT22;1383;48.362;10.908;2024-02-16T23:40:55;12.50;94.90
2751;DHT22;1383;48.362;10.908;2024-02-16T23:43:24;12.60;95.00
2751;DHT22;1383;48.362;10.908;2024-02-16T23:45:51;12.60;94.50
2751;DHT22;1383;48.362;10.908;2024-02-16T23:48:19;12.70;94.40
2751;DHT22;1383;48.362;10.908;2024-02-16T23:50:52;12.70;94.30
2751;DHT22;1383;48.362;10.908;2024-02-16T23:53:19;12.70;94.20
2751;DHT22;1383;48.362;10.908;2024-02-16T23:55:46;12.70;93.50
2751;DHT22;1383;48.362;10.908;2024-02-16T23:58:13;12.70;93.40
